sensor_id;sensor_type;location;lat;lon;timestamp;P1;durP1;ratioP1;P2;durP2;ratioP2
10699;SDS011;5401;41.986;21.452;2024-01-15T00:00:44;224.73;;;131.27;;
10699;SDS011;5401;41.986;21.452;2024-01-15T00:03:11;271.17;;;144.70;;
10699;SDS011;5401;41.986;21.452;2024-01-15T00:05:39;222.60;;;131.70;;
10699;SDS011;5401;41.986;21.452;2024-01-15T00:08:08;251.40;;;164.07;;
10699;SDS011;5401;41.986;21.452;2024-01-15T00:10:35;199.67;;;114.17;;
10699;SDS011;5401;41.986;21.452;2024-01-15T00:13:03;197.70;;;116.40;;
10699;SDS011;5401;41.986;21.452;2024-01-15T00:15:30;199.13;;;111.67;;
10699;SDS011;5401;41.986;21.452;2024-01-15T00:17:58;212.37;;;120.07;;
10699;SDS011;5401;41.986;21.452;2024-01-15T00:20:25;190.13;;;114.73;;
10699;SDS011;5401;41.986;21.452;2024-01-15T00:22:53;196.50;;;115.83;;
10699;SDS011;5401;41.986;21.452;2024-01-15T00:25:21;199.83;;;119.40;;
10699;SDS011;5401;41.986;21.452;2024-01-15T00:27:49;213.67;;;117.23;;
10699;SDS011;5401;41.986;21.452;2024-01-15T00:30:17;203.30;;;133.80;;
10699;SDS011;5401;41.986;21.452;2024-01-15T00:32:44;163.93;;;103.03;;
10699;SDS011;5401;41.986;21.452;2024-01-15T00:35:12;190.57;;;108.43;;
10699;SDS011;5401;41.986;21.452;2024-01-15T00:37:39;154.93;;;94.50;;
10699;SDS011;5401;41.986;21.452;2024-01-15T00:40:07;138.97;;;82.97;;
10699;SDS011;5401;41.986;21.452;2024-01-15T00:42:37;170.63;;;101.30;;
10699;SDS011;5401;41.986;21.452;2024-01-15T00:45:04;169.57;;;99.13;;
10699;SDS011;5401;41.986;21.452;2024-01-15T00:47:33;170.70;;;100.60;;
10699;SDS011;5401;41.986;21.452;2024-01-15T00:50:01;181.47;;;106.27;;
10699;SDS011;5401;41.986;21.452;2024-01-15T00:52:29;180.60;;;107.97;;
10699;SDS011;5401;41.986;21.452;2024-01-15T00:54:56;181.83;;;106.63;;
10699;SDS011;5401;41.986;21.452;2024-01-15T00:57:24;182.93;;;111.27;;
10699;SDS011;5401;41.986;21.452;2024-01-15T00:59:52;201.07;;;119.47;;
10699;SDS011;5401;41.986;21.452;2024-01-15T01:02:20;194.43;;;125.07;;
10699;SDS011;5401;41.986;21.452;2024-01-15T01:04:47;167.90;;;106.50;;
10699;SDS011;5401;41.986;21.452;2024-01-15T01:07:15;156.27;;;93.13;;
10699;SDS011;5401;41.986;21.452;2024-01-15T01:09:42;132.35;;;80.53;;
10699;SDS011;5401;41.986;21.452;2024-01-15T01:12:11;117.77;;;73.53;;
10699;SDS011;5401;41.986;21.452;2024-01-15T01:14:38;151.10;;;99.38;;
10699;SDS011;5401;41.986;21.452;2024-01-15T01:17:07;160.43;;;99.77;;
10699;SDS011;5401;41.986;21.452;2024-01-15T01:19:35;135.77;;;81.50;;
10699;SDS011;5401;41.986;21.452;2024-01-15T01:22:02;135.40;;;82.03;;
10699;SDS011;5401;41.986;21.452;2024-01-15T01:24:30;140.37;;;87.90;;
10699;SDS011;5401;41.986;21.452;2024-01-15T01:26:58;147.63;;;90.80;;
10699;SDS011;5401;41.986;21.452;2024-01-15T01:29:25;146.23;;;89.93;;
10699;SDS011;5401;41.986;21.452;2024-01-15T01:31:53;168.87;;;101.80;;
10699;SDS011;5401;41.986;21.452;2024-01-15T01:34:23;149.93;;;86.97;;
10699;SDS011;5401;41.986;21.452;2024-01-15T01:36:51;154.07;;;89.83;;
10699;SDS011;5401;41.986;21.452;2024-01-15T01:39:18;156.53;;;97.67;;
10699;SDS011;5401;41.986;21.452;2024-01-15T01:41:47;156.98;;;93.68;;
10699;SDS011;5401;41.986;21.452;2024-01-15T01:44:14;145.60;;;88.47;;
10699;SDS011;5401;41.986;21.452;2024-01-15T01:46:42;153.67;;;91.27;;
10699;SDS011;5401;41.986;21.452;2024-01-15T01:49:11;137.07;;;87.80;;
10699;SDS011;5401;41.986;21.452;2024-01-15T01:51:40;139.20;;;85.83;;
10699;SDS011;5401;41.986;21.452;2024-01-15T01:54:08;144.03;;;84.27;;
10699;SDS011;5401;41.986;21.452;2024-01-15T01:56:38;148.90;;;93.50;;
10699;SDS011;5401;41.986;21.452;2024-01-15T01:59:06;164.00;;;106.27;;
10699;SDS011;5401;41.986;21.452;2024-01-15T02:01:34;148.33;;;92.87;;
10699;SDS011;5401;41.986;21.452;2024-01-15T02:04:03;145.77;;;88.00;;
10699;SDS011;5401;41.986;21.452;2024-01-15T02:06:31;136.03;;;79.53;;
10699;SDS011;5401;41.986;21.452;2024-01-15T02:09:00;108.40;;;67.80;;
10699;SDS011;5401;41.986;21.452;2024-01-15T02:11:27;138.43;;;77.67;;
10699;SDS011;5401;41.986;21.452;2024-01-15T02:13:55;118.93;;;71.77;;
10699;SDS011;5401;41.986;21.452;2024-01-15T02:16:22;127.53;;;78.17;;
10699;SDS011;5401;41.986;21.452;2024-01-15T02:18:50;126.47;;;71.57;;
10699;SDS011;5401;41.986;21.452;2024-01-15T02:21:17;116.23;;;72.87;;
10699;SDS011;5401;41.986;21.452;2024-01-15T02:23:46;123.57;;;72.27;;
10699;SDS011;5401;41.986;21.452;2024-01-15T02:26:13;139.43;;;83.40;;
10699;SDS011;5401;41.986;21.452;2024-01-15T02:28:41;153.80;;;95.83;;
10699;SDS011;5401;41.986;21.452;2024-01-15T02:31:10;160.95;;;98.95;;
10699;SDS011;5401;41.986;21.452;2024-01-15T02:33:37;148.53;;;92.53;;
10699;SDS011;5401;41.986;21.452;2024-01-15T02:36:05;149.93;;;90.80;;
10699;SDS011;5401;41.986;21.452;2024-01-15T02:38:33;144.50;;;90.87;;
10699;SDS011;5401;41.986;21.452;2024-01-15T02:41:02;128.00;;;74.67;;
10699;SDS011;5401;41.986;21.452;2024-01-15T02:43:29;151.97;;;91.17;;
10699;SDS011;5401;41.986;21.452;2024-01-15T02:45:56;156.53;;;93.20;;
10699;SDS011;5401;41.986;21.452;2024-01-15T02:48:24;152.73;;;94.67;;
10699;SDS011;5401;41.986;21.452;2024-01-15T02:50:51;137.97;;;84.13;;
10699;SDS011;5401;41.986;21.452;2024-01-15T02:53:19;140.90;;;82.43;;
10699;SDS011;5401;41.986;21.452;2024-01-15T02:55:46;152.00;;;90.83;;
10699;SDS011;5401;41.986;21.452;2024-01-15T02:58:15;149.23;;;90.97;;
10699;SDS011;5401;41.986;21.452;2024-01-15T03:00:43;150.43;;;95.03;;
10699;SDS011;5401;41.986;21.452;2024-01-15T03:03:10;162.23;;;92.67;;
10699;SDS011;5401;41.986;21.452;2024-01-15T03:05:37;145.10;;;89.37;;
10699;SDS011;5401;41.986;21.452;2024-01-15T03:08:05;159.87;;;93.17;;
10699;SDS011;5401;41.986;21.452;2024-01-15T03:10:32;143.17;;;84.70;;
10699;SDS011;5401;41.986;21.452;2024-01-15T03:13:00;141.27;;;84.70;;
10699;SDS011;5401;41.986;21.452;2024-01-15T03:15:29;139.65;;;84.93;;
10699;SDS011;5401;41.986;21.452;2024-01-15T03:17:56;139.00;;;83.50;;
10699;SDS011;5401;41.986;21.452;2024-01-15T03:20:24;133.60;;;81.27;;
10699;SDS011;5401;41.986;21.452;2024-01-15T03:22:51;140.20;;;86.60;;
10699;SDS011;5401;41.986;21.452;2024-01-15T03:25:19;148.73;;;90.97;;
10699;SDS011;5401;41.986;21.452;2024-01-15T03:27:46;140.93;;;84.43;;
10699;SDS011;5401;41.986;21.452;2024-01-15T03:30:14;139.33;;;82.60;;
10699;SDS011;5401;41.986;21.452;2024-01-15T03:32:43;143.83;;;85.30;;
10699;SDS011;5401;41.986;21.452;2024-01-15T03:35:10;133.63;;;81.10;;
10699;SDS011;5401;41.986;21.452;2024-01-15T03:37:37;137.90;;;83.57;;
10699;SDS011;5401;41.986;21.452;2024-01-15T03:40:05;135.17;;;81.73;;
10699;SDS011;5401;41.986;21.452;2024-01-15T03:42:34;141.10;;;85.53;;
10699;SDS011;5401;41.986;21.452;2024-01-15T03:45:01;137.33;;;81.43;;
10699;SDS011;5401;41.986;21.452;2024-01-15T03:47:29;137.43;;;82.47;;
10699;SDS011;5401;41.986;21.452;2024-01-15T03:49:58;132.90;;;83.80;;
10699;SDS011;5401;41.986;21.452;2024-01-15T03:52:26;133.30;;;82.23;;
10699;SDS011;5401;41.986;21.452;2024-01-15T03:54:53;153.47;;;82.23;;
10699;SDS011;5401;41.986;21.452;2024-01-15T03:57:21;142.20;;;85.53;;
10699;SDS011;5401;41.986;21.452;2024-01-15T03:59:48;131.10;;;81.73;;
10699;SDS011;5401;41.986;21.452;2024-01-15T04:02:15;135.77;;;83.83;;
10699;SDS011;5401;41.986;21.452;2024-01-15T04:04:43;144.13;;;85.20;;
10699;SDS011;5401;41.986;21.452;2024-01-15T04:07:12;142.13;;;86.90;;
10699;SDS011;5401;41.986;21.452;2024-01-15T04:09:40;136.37;;;86.57;;
10699;SDS011;5401;41.986;21.452;2024-01-15T04:12:07;145.88;;;95.00;;
10699;SDS011;5401;41.986;21.452;2024-01-15T04:14:35;133.57;;;85.43;;
10699;SDS011;5401;41.986;21.452;2024-01-15T04:17:02;131.90;;;81.40;;
10699;SDS011;5401;41.986;21.452;2024-01-15T04:19:30;139.50;;;83.73;;
10699;SDS011;5401;41.986;21.452;2024-01-15T04:21:57;141.20;;;84.20;;
10699;SDS011;5401;41.986;21.452;2024-01-15T04:24:26;131.23;;;79.40;;
10699;SDS011;5401;41.986;21.452;2024-01-15T04:26:54;125.00;;;74.40;;
10699;SDS011;5401;41.986;21.452;2024-01-15T04:29:21;120.23;;;77.23;;
10699;SDS011;5401;41.986;21.452;2024-01-15T04:31:48;116.17;;;72.47;;
10699;SDS011;5401;41.986;21.452;2024-01-15T04:34:16;116.37;;;71.00;;
10699;SDS011;5401;41.986;21.452;2024-01-15T04:36:43;120.13;;;73.47;;
10699;SDS011;5401;41.986;21.452;2024-01-15T04:39:11;120.40;;;71.67;;
10699;SDS011;5401;41.986;21.452;2024-01-15T04:41:40;115.63;;;70.27;;
10699;SDS011;5401;41.986;21.452;2024-01-15T04:44:07;112.27;;;69.17;;
10699;SDS011;5401;41.986;21.452;2024-01-15T04:46:35;119.33;;;76.50;;
10699;SDS011;5401;41.986;21.452;2024-01-15T04:49:02;113.37;;;69.93;;
10699;SDS011;5401;41.986;21.452;2024-01-15T04:51:30;119.20;;;70.90;;
10699;SDS011;5401;41.986;21.452;2024-01-15T04:53:57;124.40;;;73.10;;
10699;SDS011;5401;41.986;21.452;2024-01-15T04:56:24;119.70;;;71.37;;
10699;SDS011;5401;41.986;21.452;2024-01-15T04:58:53;118.20;;;70.77;;
10699;SDS011;5401;41.986;21.452;2024-01-15T05:01:21;107.10;;;67.17;;
10699;SDS011;5401;41.986;21.452;2024-01-15T05:03:48;108.77;;;64.80;;
10699;SDS011;5401;41.986;21.452;2024-01-15T05:06:16;102.90;;;60.80;;
10699;SDS011;5401;41.986;21.452;2024-01-15T05:08:43;99.90;;;61.37;;
10699;SDS011;5401;41.986;21.452;2024-01-15T05:11:11;102.53;;;64.50;;
10699;SDS011;5401;41.986;21.452;2024-01-15T05:13:38;107.10;;;61.83;;
10699;SDS011;5401;41.986;21.452;2024-01-15T05:16:07;98.77;;;60.27;;
10699;SDS011;5401;41.986;21.452;2024-01-15T05:18:35;105.93;;;64.13;;
10699;SDS011;5401;41.986;21.452;2024-01-15T05:21:04;96.63;;;59.07;;
10699;SDS011;5401;41.986;21.452;2024-01-15T05:23:31;95.23;;;59.57;;
10699;SDS011;5401;41.986;21.452;2024-01-15T05:25:59;100.03;;;60.53;;
10699;SDS011;5401;41.986;21.452;2024-01-15T05:28:26;94.50;;;59.20;;
10699;SDS011;5401;41.986;21.452;2024-01-15T05:30:54;104.03;;;60.00;;
10699;SDS011;5401;41.986;21.452;2024-01-15T05:33:22;102.57;;;59.60;;
10699;SDS011;5401;41.986;21.452;2024-01-15T05:35:50;104.37;;;63.93;;
10699;SDS011;5401;41.986;21.452;2024-01-15T05:38:17;101.70;;;59.73;;
10699;SDS011;5401;41.986;21.452;2024-01-15T05:40:45;101.33;;;66.20;;
10699;SDS011;5401;41.986;21.452;2024-01-15T05:43:12;104.57;;;63.90;;
10699;SDS011;5401;41.986;21.452;2024-01-15T05:45:42;99.50;;;57.53;;
10699;SDS011;5401;41.986;21.452;2024-01-15T05:48:10;97.20;;;58.23;;
10699;SDS011;5401;41.986;21.452;2024-01-15T05:50:39;106.00;;;62.23;;
10699;SDS011;5401;41.986;21.452;2024-01-15T05:53:06;98.70;;;60.13;;
10699;SDS011;5401;41.986;21.452;2024-01-15T05:55:34;98.77;;;60.33;;
10699;SDS011;5401;41.986;21.452;2024-01-15T05:58:03;96.83;;;59.77;;
10699;SDS011;5401;41.986;21.452;2024-01-15T06:00:30;96.30;;;59.70;;
10699;SDS011;5401;41.986;21.452;2024-01-15T06:03:00;100.90;;;60.37;;
10699;SDS011;5401;41.986;21.452;2024-01-15T06:05:27;103.23;;;63.23;;
10699;SDS011;5401;41.986;21.452;2024-01-15T06:07:56;106.10;;;62.50;;
10699;SDS011;5401;41.986;21.452;2024-01-15T06:10:24;96.93;;;60.17;;
10699;SDS011;5401;41.986;21.452;2024-01-15T06:12:51;100.00;;;59.83;;
10699;SDS011;5401;41.986;21.452;2024-01-15T06:15:19;106.47;;;63.33;;
10699;SDS011;5401;41.986;21.452;2024-01-15T06:17:46;109.97;;;63.13;;
10699;SDS011;5401;41.986;21.452;2024-01-15T06:20:13;110.90;;;66.87;;
10699;SDS011;5401;41.986;21.452;2024-01-15T06:22:41;102.40;;;62.43;;
10699;SDS011;5401;41.986;21.452;2024-01-15T06:25:10;103.07;;;60.93;;
10699;SDS011;5401;41.986;21.452;2024-01-15T06:27:37;104.67;;;63.30;;
10699;SDS011;5401;41.986;21.452;2024-01-15T06:30:15;102.75;;;60.09;;
10699;SDS011;5401;41.986;21.452;2024-01-15T06:32:42;102.87;;;63.33;;
10699;SDS011;5401;41.986;21.452;2024-01-15T06:35:10;97.60;;;59.60;;
10699;SDS011;5401;41.986;21.452;2024-01-15T06:37:38;105.37;;;60.97;;
10699;SDS011;5401;41.986;21.452;2024-01-15T06:40:06;104.93;;;62.43;;
10699;SDS011;5401;41.986;21.452;2024-01-15T06:42:37;99.03;;;59.70;;
10699;SDS011;5401;41.986;21.452;2024-01-15T06:45:05;99.93;;;61.13;;
10699;SDS011;5401;41.986;21.452;2024-01-15T06:47:33;115.43;;;75.13;;
10699;SDS011;5401;41.986;21.452;2024-01-15T06:50:00;107.47;;;69.07;;
10699;SDS011;5401;41.986;21.452;2024-01-15T06:52:27;117.93;;;66.53;;
10699;SDS011;5401;41.986;21.452;2024-01-15T06:54:55;116.37;;;69.30;;
10699;SDS011;5401;41.986;21.452;2024-01-15T06:57:22;118.72;;;71.95;;
10699;SDS011;5401;41.986;21.452;2024-01-15T06:59:51;103.67;;;66.13;;
10699;SDS011;5401;41.986;21.452;2024-01-15T07:02:19;109.83;;;68.77;;
10699;SDS011;5401;41.986;21.452;2024-01-15T07:04:47;114.37;;;65.73;;
10699;SDS011;5401;41.986;21.452;2024-01-15T07:07:14;122.23;;;70.07;;
10699;SDS011;5401;41.986;21.452;2024-01-15T07:09:42;118.57;;;69.87;;
10699;SDS011;5401;41.986;21.452;2024-01-15T07:12:10;163.07;;;90.63;;
10699;SDS011;5401;41.986;21.452;2024-01-15T07:14:37;127.33;;;71.07;;
10699;SDS011;5401;41.986;21.452;2024-01-15T07:17:06;123.17;;;70.17;;
10699;SDS011;5401;41.986;21.452;2024-01-15T07:19:33;142.47;;;74.90;;
10699;SDS011;5401;41.986;21.452;2024-01-15T07:22:01;111.47;;;69.03;;
10699;SDS011;5401;41.986;21.452;2024-01-15T07:24:28;120.10;;;71.23;;
10699;SDS011;5401;41.986;21.452;2024-01-15T07:26:56;153.73;;;81.53;;
10699;SDS011;5401;41.986;21.452;2024-01-15T07:29:23;140.37;;;76.77;;
10699;SDS011;5401;41.986;21.452;2024-01-15T07:31:51;122.80;;;72.23;;
10699;SDS011;5401;41.986;21.452;2024-01-15T07:34:20;150.43;;;75.57;;
10699;SDS011;5401;41.986;21.452;2024-01-15T07:36:48;124.87;;;71.20;;
10699;SDS011;5401;41.986;21.452;2024-01-15T07:39:15;124.10;;;71.20;;
10699;SDS011;5401;41.986;21.452;2024-01-15T07:41:42;124.43;;;70.87;;
10699;SDS011;5401;41.986;21.452;2024-01-15T07:44:11;162.50;;;85.97;;
10699;SDS011;5401;41.986;21.452;2024-01-15T07:46:39;120.97;;;68.50;;
10699;SDS011;5401;41.986;21.452;2024-01-15T07:49:07;129.13;;;73.07;;
10699;SDS011;5401;41.986;21.452;2024-01-15T07:51:35;172.67;;;86.23;;
10699;SDS011;5401;41.986;21.452;2024-01-15T07:54:03;122.93;;;72.20;;
10699;SDS011;5401;41.986;21.452;2024-01-15T07:56:30;128.03;;;72.10;;
10699;SDS011;5401;41.986;21.452;2024-01-15T07:58:58;168.27;;;88.13;;
10699;SDS011;5401;41.986;21.452;2024-01-15T08:01:26;128.43;;;76.17;;
10699;SDS011;5401;41.986;21.452;2024-01-15T08:03:53;139.10;;;81.43;;
10699;SDS011;5401;41.986;21.452;2024-01-15T08:06:21;125.40;;;80.23;;
10699;SDS011;5401;41.986;21.452;2024-01-15T08:08:51;131.27;;;84.23;;
10699;SDS011;5401;41.986;21.452;2024-01-15T08:11:19;138.17;;;81.93;;
10699;SDS011;5401;41.986;21.452;2024-01-15T08:13:46;132.40;;;80.57;;
10699;SDS011;5401;41.986;21.452;2024-01-15T08:16:14;140.10;;;87.23;;
10699;SDS011;5401;41.986;21.452;2024-01-15T08:18:41;131.80;;;87.27;;
10699;SDS011;5401;41.986;21.452;2024-01-15T08:21:09;140.63;;;84.83;;
10699;SDS011;5401;41.986;21.452;2024-01-15T08:23:37;152.27;;;93.67;;
10699;SDS011;5401;41.986;21.452;2024-01-15T08:26:06;148.13;;;90.57;;
10699;SDS011;5401;41.986;21.452;2024-01-15T08:28:33;142.40;;;89.47;;
10699;SDS011;5401;41.986;21.452;2024-01-15T08:31:01;137.60;;;90.43;;
10699;SDS011;5401;41.986;21.452;2024-01-15T08:33:29;147.43;;;92.60;;
10699;SDS011;5401;41.986;21.452;2024-01-15T08:35:56;147.60;;;89.93;;
10699;SDS011;5401;41.986;21.452;2024-01-15T08:38:24;133.73;;;88.60;;
10699;SDS011;5401;41.986;21.452;2024-01-15T08:40:52;152.47;;;95.83;;
10699;SDS011;5401;41.986;21.452;2024-01-15T08:43:23;140.57;;;89.90;;
10699;SDS011;5401;41.986;21.452;2024-01-15T08:45:51;135.70;;;88.30;;
10699;SDS011;5401;41.986;21.452;2024-01-15T08:48:18;161.87;;;95.50;;
10699;SDS011;5401;41.986;21.452;2024-01-15T08:50:46;141.50;;;87.23;;
10699;SDS011;5401;41.986;21.452;2024-01-15T08:53:13;143.63;;;87.27;;
10699;SDS011;5401;41.986;21.452;2024-01-15T08:55:41;144.37;;;87.43;;
10699;SDS011;5401;41.986;21.452;2024-01-15T08:58:10;136.80;;;84.13;;
10699;SDS011;5401;41.986;21.452;2024-01-15T09:00:39;138.27;;;84.00;;
10699;SDS011;5401;41.986;21.452;2024-01-15T09:03:06;132.10;;;81.43;;
10699;SDS011;5401;41.986;21.452;2024-01-15T09:05:34;132.17;;;80.67;;
10699;SDS011;5401;41.986;21.452;2024-01-15T09:08:02;124.10;;;78.93;;
10699;SDS011;5401;41.986;21.452;2024-01-15T09:10:30;122.90;;;77.70;;
10699;SDS011;5401;41.986;21.452;2024-01-15T09:12:57;125.50;;;77.90;;
10699;SDS011;5401;41.986;21.452;2024-01-15T09:15:25;122.93;;;77.60;;
10699;SDS011;5401;41.986;21.452;2024-01-15T09:17:54;119.53;;;78.13;;
10699;SDS011;5401;41.986;21.452;2024-01-15T09:20:23;119.60;;;79.77;;
10699;SDS011;5401;41.986;21.452;2024-01-15T09:22:51;128.93;;;82.10;;
10699;SDS011;5401;41.986;21.452;2024-01-15T09:25:19;126.47;;;83.83;;
10699;SDS011;5401;41.986;21.452;2024-01-15T09:27:46;131.57;;;85.30;;
10699;SDS011;5401;41.986;21.452;2024-01-15T09:30:14;128.23;;;78.63;;
10699;SDS011;5401;41.986;21.452;2024-01-15T09:32:42;132.80;;;83.00;;
10699;SDS011;5401;41.986;21.452;2024-01-15T09:35:11;124.70;;;78.87;;
10699;SDS011;5401;41.986;21.452;2024-01-15T09:37:39;127.53;;;80.07;;
10699;SDS011;5401;41.986;21.452;2024-01-15T09:40:07;144.67;;;76.30;;
10699;SDS011;5401;41.986;21.452;2024-01-15T09:42:39;132.77;;;77.80;;
10699;SDS011;5401;41.986;21.452;2024-01-15T09:45:07;138.80;;;77.40;;
10699;SDS011;5401;41.986;21.452;2024-01-15T09:47:35;126.00;;;74.13;;
10699;SDS011;5401;41.986;21.452;2024-01-15T09:50:04;124.10;;;74.90;;
10699;SDS011;5401;41.986;21.452;2024-01-15T09:52:34;144.73;;;81.00;;
10699;SDS011;5401;41.986;21.452;2024-01-15T09:55:02;128.30;;;76.90;;
10699;SDS011;5401;41.986;21.452;2024-01-15T09:57:31;133.60;;;76.03;;
10699;SDS011;5401;41.986;21.452;2024-01-15T09:59:59;147.03;;;82.23;;
10699;SDS011;5401;41.986;21.452;2024-01-15T10:02:30;129.47;;;75.70;;
10699;SDS011;5401;41.986;21.452;2024-01-15T10:04:58;132.80;;;75.00;;
10699;SDS011;5401;41.986;21.452;2024-01-15T10:07:26;143.13;;;83.07;;
10699;SDS011;5401;41.986;21.452;2024-01-15T10:09:57;126.53;;;74.07;;
10699;SDS011;5401;41.986;21.452;2024-01-15T10:12:25;133.37;;;77.17;;
10699;SDS011;5401;41.986;21.452;2024-01-15T10:14:53;150.97;;;84.27;;
10699;SDS011;5401;41.986;21.452;2024-01-15T10:17:20;132.90;;;76.90;;
10699;SDS011;5401;41.986;21.452;2024-01-15T10:19:48;125.80;;;75.53;;
10699;SDS011;5401;41.986;21.452;2024-01-15T10:22:16;126.87;;;77.43;;
10699;SDS011;5401;41.986;21.452;2024-01-15T10:24:44;122.90;;;75.03;;
10699;SDS011;5401;41.986;21.452;2024-01-15T10:27:15;128.67;;;78.77;;
10699;SDS011;5401;41.986;21.452;2024-01-15T10:29:43;137.57;;;80.43;;
10699;SDS011;5401;41.986;21.452;2024-01-15T10:32:12;121.83;;;71.87;;
10699;SDS011;5401;41.986;21.452;2024-01-15T10:34:40;123.47;;;72.37;;
10699;SDS011;5401;41.986;21.452;2024-01-15T10:37:08;127.37;;;74.50;;
10699;SDS011;5401;41.986;21.452;2024-01-15T10:39:36;130.60;;;77.70;;
10699;SDS011;5401;41.986;21.452;2024-01-15T10:42:05;123.00;;;76.27;;
10699;SDS011;5401;41.986;21.452;2024-01-15T10:44:34;125.70;;;78.07;;
10699;SDS011;5401;41.986;21.452;2024-01-15T10:47:02;139.60;;;81.20;;
10699;SDS011;5401;41.986;21.452;2024-01-15T10:49:29;125.80;;;75.17;;
10699;SDS011;5401;41.986;21.452;2024-01-15T10:51:58;126.10;;;76.17;;
10699;SDS011;5401;41.986;21.452;2024-01-15T10:54:26;146.30;;;83.10;;
10699;SDS011;5401;41.986;21.452;2024-01-15T10:56:54;132.90;;;75.80;;
10699;SDS011;5401;41.986;21.452;2024-01-15T10:59:23;126.77;;;75.93;;
10699;SDS011;5401;41.986;21.452;2024-01-15T11:01:52;141.30;;;83.37;;
10699;SDS011;5401;41.986;21.452;2024-01-15T11:04:20;130.17;;;74.37;;
10699;SDS011;5401;41.986;21.452;2024-01-15T11:06:49;120.73;;;72.87;;
10699;SDS011;5401;41.986;21.452;2024-01-15T11:09:19;128.63;;;75.80;;
10699;SDS011;5401;41.986;21.452;2024-01-15T11:11:47;118.00;;;72.00;;
10699;SDS011;5401;41.986;21.452;2024-01-15T11:14:33;121.83;;;70.50;;
10699;SDS011;5401;41.986;21.452;2024-01-15T11:17:03;128.53;;;73.77;;
10699;SDS011;5401;41.986;21.452;2024-01-15T11:19:37;120.23;;;69.77;;
10699;SDS011;5401;41.986;21.452;2024-01-15T11:22:07;128.43;;;69.47;;
10699;SDS011;5401;41.986;21.452;2024-01-15T11:24:36;122.63;;;69.20;;
10699;SDS011;5401;41.986;21.452;2024-01-15T11:27:04;107.13;;;65.60;;
10699;SDS011;5401;41.986;21.452;2024-01-15T11:29:33;96.40;;;58.10;;
10699;SDS011;5401;41.986;21.452;2024-01-15T11:32:04;114.30;;;64.47;;
10699;SDS011;5401;41.986;21.452;2024-01-15T11:34:54;105.10;;;63.47;;
10699;SDS011;5401;41.986;21.452;2024-01-15T11:37:28;104.17;;;60.73;;
10699;SDS011;5401;41.986;21.452;2024-01-15T11:40:00;98.47;;;57.77;;
10699;SDS011;5401;41.986;21.452;2024-01-15T11:42:29;107.27;;;62.80;;
10699;SDS011;5401;41.986;21.452;2024-01-15T11:44:56;107.77;;;59.13;;
10699;SDS011;5401;41.986;21.452;2024-01-15T11:47:50;87.20;;;54.03;;
10699;SDS011;5401;41.986;21.452;2024-01-15T11:50:35;210.33;;;136.13;;
10699;SDS011;5401;41.986;21.452;2024-01-15T11:53:09;153.10;;;101.87;;
10699;SDS011;5401;41.986;21.452;2024-01-15T11:55:45;113.87;;;66.90;;
10699;SDS011;5401;41.986;21.452;2024-01-15T11:58:14;218.27;;;136.60;;
10699;SDS011;5401;41.986;21.452;2024-01-15T12:00:43;115.20;;;68.17;;
10699;SDS011;5401;41.986;21.452;2024-01-15T12:03:13;95.53;;;56.07;;
10699;SDS011;5401;41.986;21.452;2024-01-15T12:05:42;86.53;;;54.53;;
10699;SDS011;5401;41.986;21.452;2024-01-15T12:08:09;207.60;;;132.37;;
10699;SDS011;5401;41.986;21.452;2024-01-15T12:10:37;135.70;;;85.83;;
10699;SDS011;5401;41.986;21.452;2024-01-15T12:13:09;158.33;;;91.00;;
10699;SDS011;5401;41.986;21.452;2024-01-15T12:15:38;148.77;;;93.83;;
10699;SDS011;5401;41.986;21.452;2024-01-15T12:18:07;86.13;;;51.40;;
10699;SDS011;5401;41.986;21.452;2024-01-15T12:20:37;86.30;;;52.43;;
10699;SDS011;5401;41.986;21.452;2024-01-15T12:23:05;85.03;;;52.37;;
10699;SDS011;5401;41.986;21.452;2024-01-15T12:25:34;78.10;;;48.23;;
10699;SDS011;5401;41.986;21.452;2024-01-15T12:28:01;75.20;;;43.67;;
10699;SDS011;5401;41.986;21.452;2024-01-15T12:30:30;61.83;;;38.63;;
10699;SDS011;5401;41.986;21.452;2024-01-15T12:33:01;59.40;;;39.13;;
10699;SDS011;5401;41.986;21.452;2024-01-15T12:35:30;62.40;;;38.97;;
10699;SDS011;5401;41.986;21.452;2024-01-15T12:38:00;62.57;;;37.33;;
10699;SDS011;5401;41.986;21.452;2024-01-15T12:40:30;60.77;;;36.57;;
10699;SDS011;5401;41.986;21.452;2024-01-15T12:42:58;59.47;;;37.07;;
10699;SDS011;5401;41.986;21.452;2024-01-15T12:45:26;60.23;;;36.60;;
10699;SDS011;5401;41.986;21.452;2024-01-15T12:47:53;55.40;;;37.00;;
10699;SDS011;5401;41.986;21.452;2024-01-15T12:50:23;53.83;;;34.80;;
10699;SDS011;5401;41.986;21.452;2024-01-15T12:52:51;56.40;;;34.73;;
10699;SDS011;5401;41.986;21.452;2024-01-15T12:55:20;59.63;;;35.93;;
10699;SDS011;5401;41.986;21.452;2024-01-15T12:57:48;63.87;;;37.80;;
10699;SDS011;5401;41.986;21.452;2024-01-15T13:00:18;55.90;;;37.13;;
10699;SDS011;5401;41.986;21.452;2024-01-15T13:02:45;61.70;;;37.33;;
10699;SDS011;5401;41.986;21.452;2024-01-15T13:05:13;50.20;;;33.37;;
10699;SDS011;5401;41.986;21.452;2024-01-15T13:07:40;53.70;;;32.73;;
10699;SDS011;5401;41.986;21.452;2024-01-15T13:10:08;56.27;;;33.30;;
10699;SDS011;5401;41.986;21.452;2024-01-15T13:12:37;57.20;;;34.63;;
10699;SDS011;5401;41.986;21.452;2024-01-15T13:15:05;51.83;;;32.57;;
10699;SDS011;5401;41.986;21.452;2024-01-15T13:17:37;55.27;;;32.67;;
10699;SDS011;5401;41.986;21.452;2024-01-15T13:20:06;56.00;;;32.97;;
10699;SDS011;5401;41.986;21.452;2024-01-15T13:22:34;57.10;;;35.60;;
10699;SDS011;5401;41.986;21.452;2024-01-15T13:25:02;56.20;;;35.37;;
10699;SDS011;5401;41.986;21.452;2024-01-15T13:27:32;66.10;;;39.00;;
10699;SDS011;5401;41.986;21.452;2024-01-15T13:30:02;66.77;;;42.33;;
10699;SDS011;5401;41.986;21.452;2024-01-15T13:32:32;62.17;;;41.93;;
10699;SDS011;5401;41.986;21.452;2024-01-15T13:34:59;71.70;;;42.50;;
10699;SDS011;5401;41.986;21.452;2024-01-15T13:37:28;65.97;;;42.70;;
10699;SDS011;5401;41.986;21.452;2024-01-15T13:39:59;67.05;;;42.78;;
10699;SDS011;5401;41.986;21.452;2024-01-15T13:42:29;74.43;;;44.87;;
10699;SDS011;5401;41.986;21.452;2024-01-15T13:44:56;76.93;;;46.77;;
10699;SDS011;5401;41.986;21.452;2024-01-15T13:47:25;73.07;;;45.87;;
10699;SDS011;5401;41.986;21.452;2024-01-15T13:49:53;68.97;;;43.80;;
10699;SDS011;5401;41.986;21.452;2024-01-15T13:52:21;65.43;;;42.67;;
10699;SDS011;5401;41.986;21.452;2024-01-15T13:54:48;65.77;;;42.30;;
10699;SDS011;5401;41.986;21.452;2024-01-15T13:57:16;66.87;;;40.73;;
10699;SDS011;5401;41.986;21.452;2024-01-15T13:59:44;63.17;;;37.10;;
10699;SDS011;5401;41.986;21.452;2024-01-15T14:02:12;61.53;;;35.03;;
10699;SDS011;5401;41.986;21.452;2024-01-15T14:04:41;58.43;;;36.67;;
10699;SDS011;5401;41.986;21.452;2024-01-15T14:07:09;59.23;;;36.23;;
10699;SDS011;5401;41.986;21.452;2024-01-15T14:09:36;58.37;;;36.23;;
10699;SDS011;5401;41.986;21.452;2024-01-15T14:12:04;56.07;;;35.63;;
10699;SDS011;5401;41.986;21.452;2024-01-15T14:14:33;54.30;;;34.83;;
10699;SDS011;5401;41.986;21.452;2024-01-15T14:17:00;46.73;;;32.73;;